createdAt,value
2022-09-05T00:01:29.539Z,15.70
2022-09-05T00:04:34.651Z,15.60
2022-09-05T00:07:31.174Z,15.80
2022-09-05T00:10:21.839Z,15.40
2022-09-05T00:12:50.886Z,15.50
2022-09-05T00:19:51.676Z,15.50
2022-09-05T00:24:24.865Z,15.80
2022-09-05T00:24:51.374Z,15.60
2022-09-05T00:27:38.716Z,15.40
2022-09-05T00:31:07.680Z,15.70
2022-09-05T00:33:24.567Z,15.40
2022-09-05T00:36:16.817Z,15.30
2022-09-05T00:39:03.161Z,15.20
2022-09-05T00:41:34.307Z,15.20
2022-09-05T00:44:02.583Z,15.20
2022-09-05T00:46:33.783Z,15.20
2022-09-05T00:51:49.249Z,15.20
2022-09-05T00:56:58.770Z,14.90
2022-09-05T00:59:37.550Z,15.10
2022-09-05T01:02:21.384Z,15.30
2022-09-05T01:05:04.838Z,14.80
2022-09-05T01:07:59.437Z,15.10
2022-09-05T01:10:50.286Z,15.10
2022-09-05T01:13:38.628Z,15.00
2022-09-05T01:16:08.358Z,14.90
2022-09-05T01:18:49.811Z,15.00
2022-09-05T01:21:58.349Z,14.90
2022-09-05T01:27:16.512Z,15.00
2022-09-05T01:30:18.253Z,15.00
2022-09-05T01:33:07.702Z,14.90
2022-09-05T01:35:52.339Z,15.00
2022-09-05T01:41:18.366Z,15.00
2022-09-05T01:44:04.596Z,15.00
2022-09-05T01:46:46.062Z,15.10
2022-09-05T01:49:46.121Z,15.30
2022-09-05T01:52:19.821Z,14.90
2022-09-05T01:55:17.580Z,14.90
2022-09-05T01:58:05.510Z,14.90
2022-09-05T02:01:25.496Z,14.90
2022-09-05T02:04:07.965Z,14.80
2022-09-05T02:07:29.835Z,14.70
2022-09-05T02:10:23.336Z,14.90
2022-09-05T02:13:02.874Z,14.70
2022-09-05T02:16:00.253Z,14.70
2022-09-05T02:18:54.939Z,14.90
2022-09-05T02:21:55.606Z,14.70
2022-09-05T02:24:26.559Z,14.50
2022-09-05T02:27:02.105Z,14.90
2022-09-05T02:29:44.673Z,14.60
2022-09-05T02:32:23.935Z,14.70
2022-09-05T02:35:09.539Z,14.70
2022-09-05T02:38:54.367Z,14.70
2022-09-05T02:45:12.351Z,14.60
2022-09-05T02:45:24.195Z,14.60
2022-09-05T02:47:45.844Z,14.70
2022-09-05T02:53:39.167Z,14.40
2022-09-05T02:57:26.978Z,14.50
2022-09-05T02:59:09.651Z,14.50
2022-09-05T03:01:56.416Z,14.50
2022-09-05T03:04:35.369Z,14.50
2022-09-05T03:07:23.176Z,14.50
2022-09-05T03:10:20.107Z,14.50
2022-09-05T03:13:54.489Z,14.40
2022-09-05T03:16:48.425Z,14.40
2022-09-05T03:19:18.059Z,14.40
2022-09-05T03:24:55.968Z,14.40
2022-09-05T03:28:03.968Z,14.40
2022-09-05T03:30:55.189Z,14.40
2022-09-05T03:39:03.234Z,14.40
2022-09-05T03:41:49.726Z,14.30
2022-09-05T03:44:28.776Z,14.30
2022-09-05T03:53:55.035Z,14.30
2022-09-05T03:57:12.144Z,13.90
2022-09-05T03:57:19.760Z,14.20
2022-09-05T03:59:14.300Z,14.20
2022-09-05T04:05:10.938Z,14.30
2022-09-05T04:08:18.542Z,14.20
2022-09-05T04:08:40.945Z,14.10
2022-09-05T04:11:02.346Z,14.20
2022-09-05T04:13:39.289Z,14.20
2022-09-05T04:19:05.297Z,14.10
2022-09-05T04:21:46.896Z,14.10
2022-09-05T04:24:30.409Z,14.10
2022-09-05T04:27:21.649Z,14.10
2022-09-05T04:30:05.021Z,13.80
2022-09-05T04:33:05.135Z,14.00
2022-09-05T04:35:58.629Z,14.00
2022-09-05T04:38:43.500Z,14.00
2022-09-05T04:41:21.372Z,13.90
2022-09-05T04:44:15.314Z,13.80
2022-09-05T04:49:24.447Z,13.80
2022-09-05T04:52:13.796Z,13.90
2022-09-05T04:55:05.844Z,13.80
2022-09-05T04:57:43.045Z,14.20
2022-09-05T05:06:11.234Z,14.00
2022-09-05T05:06:14.815Z,14.00
2022-09-05T05:09:01.011Z,13.90
2022-09-05T05:16:32.546Z,13.90
2022-09-05T05:18:06.249Z,14.00
2022-09-05T05:18:15.468Z,14.00
2022-09-05T05:20:53.317Z,14.00
2022-09-05T05:23:49.027Z,14.10
2022-09-05T05:26:37.133Z,14.10
2022-09-05T05:29:22.448Z,14.20
2022-09-05T05:31:56.720Z,14.30
2022-09-05T05:34:34.694Z,14.60
2022-09-05T05:37:23.429Z,14.30
2022-09-05T05:40:08.752Z,14.20
2022-09-05T05:42:39.773Z,14.40
2022-09-05T05:45:20.745Z,14.50
2022-09-05T05:48:04.095Z,14.60
2022-09-05T05:51:07.822Z,14.70
2022-09-05T05:54:32.816Z,15.00
2022-09-05T05:57:12.570Z,14.90
2022-09-05T06:00:01.193Z,15.10
2022-09-05T06:03:25.851Z,15.30
2022-09-05T06:06:20.296Z,15.20
2022-09-05T06:13:48.862Z,15.00
2022-09-05T06:15:00.914Z,15.20
2022-09-05T06:15:41.437Z,15.60
2022-09-05T06:18:21.753Z,15.60
2022-09-05T06:24:21.403Z,15.50
2022-09-05T06:27:19.312Z,15.60
2022-09-05T06:32:58.306Z,16.20
2022-09-05T06:35:49.335Z,16.20
2022-09-05T06:38:51.563Z,16.50
2022-09-05T06:41:43.794Z,16.40
2022-09-05T06:44:26.133Z,16.50
2022-09-05T06:47:30.228Z,16.60
2022-09-05T06:50:24.010Z,16.70
2022-09-05T06:53:30.072Z,16.80
2022-09-05T06:56:26.091Z,17.00
2022-09-05T07:01:59.806Z,17.10
2022-09-05T07:09:52.120Z,17.30
2022-09-05T07:12:30.139Z,17.70
2022-09-05T07:15:32.037Z,17.50
2022-09-05T07:18:26.255Z,17.80
2022-09-05T07:21:18.082Z,18.00
2022-09-05T07:24:05.617Z,18.00
2022-09-05T07:26:52.662Z,18.20
2022-09-05T07:29:28.040Z,18.30
2022-09-05T07:31:56.100Z,18.40
2022-09-05T07:34:32.420Z,18.50
2022-09-05T07:37:15.720Z,18.60
2022-09-05T07:40:11.233Z,18.80
2022-09-05T07:43:08.748Z,18.90
2022-09-05T07:45:50.796Z,18.90
2022-09-05T07:48:34.274Z,19.30
2022-09-05T07:54:45.305Z,19.10
2022-09-05T07:57:06.017Z,19.00
2022-09-05T08:00:06.809Z,19.50
2022-09-05T08:05:04.354Z,19.60
2022-09-05T08:07:47.879Z,19.70
2022-09-05T08:10:31.098Z,19.80
2022-09-05T08:13:24.353Z,20.00
2022-09-05T08:16:10.593Z,20.10
2022-09-05T08:21:27.666Z,20.20
2022-09-05T08:26:36.705Z,20.90
2022-09-05T08:31:42.273Z,20.90
2022-09-05T08:34:24.802Z,20.70
2022-09-05T08:37:12.553Z,21.00
2022-09-05T08:42:38.751Z,21.70
2022-09-05T08:46:40.510Z,20.90
2022-09-05T08:48:25.449Z,21.30
2022-09-05T08:53:53.976Z,21.70
2022-09-05T08:56:58.536Z,21.40
2022-09-05T08:59:45.829Z,21.40
2022-09-05T09:02:49.729Z,21.90
2022-09-05T09:05:58.071Z,21.90
2022-09-05T09:11:02.269Z,21.90
2022-09-05T09:13:52.482Z,21.80
2022-09-05T09:16:54.729Z,22.40
2022-09-05T09:19:29.351Z,22.30
2022-09-05T09:22:13.983Z,22.30
2022-09-05T09:25:11.256Z,22.80
2022-09-05T09:30:33.365Z,22.90
2022-09-05T09:33:06.300Z,23.10
2022-09-05T09:35:42.234Z,22.90
2022-09-05T09:38:28.042Z,23.40
2022-09-05T09:41:45.363Z,23.40
2022-09-05T09:44:15.885Z,23.50
2022-09-05T09:46:48.342Z,23.70
2022-09-05T09:49:29.551Z,23.90
2022-09-05T09:52:21.024Z,23.90
2022-09-05T09:55:27.142Z,23.60
2022-09-05T10:00:25.103Z,24.00
2022-09-05T10:04:15.880Z,24.20
2022-09-05T10:11:09.015Z,24.00
2022-09-05T10:11:09.670Z,24.50
2022-09-05T10:13:25.030Z,24.20
2022-09-05T10:16:38.406Z,24.30
2022-09-05T10:22:45.649Z,24.60
2022-09-05T10:25:32.524Z,24.50
2022-09-05T10:28:39.067Z,24.70
2022-09-05T10:33:24.316Z,24.70
2022-09-05T10:35:14.558Z,24.60
2022-09-05T10:37:44.448Z,25.40
2022-09-05T10:40:14.977Z,25.00
2022-09-05T10:42:58.168Z,25.10
2022-09-05T10:45:45.967Z,25.20
2022-09-05T10:48:25.327Z,25.10
2022-09-05T10:51:27.416Z,25.20
2022-09-05T10:54:28.088Z,25.20
2022-09-05T10:57:16.657Z,25.50
2022-09-05T11:02:19.045Z,25.40
2022-09-05T11:02:57.837Z,25.40
2022-09-05T11:08:01.965Z,25.40
2022-09-05T11:10:50.019Z,25.50
2022-09-05T11:13:49.984Z,25.80
2022-09-05T11:16:37.698Z,25.90
2022-09-05T11:19:16.200Z,25.80
2022-09-05T11:22:23.041Z,25.40
2022-09-05T11:25:00.585Z,25.50
2022-09-05T11:27:47.290Z,25.60
2022-09-05T11:30:28.872Z,25.70
2022-09-05T11:39:45.663Z,25.80
2022-09-05T11:39:56.069Z,25.80
2022-09-05T11:44:42.777Z,26.00
2022-09-05T11:47:44.855Z,25.80
2022-09-05T11:50:15.201Z,26.20
2022-09-05T11:53:06.301Z,26.60
2022-09-05T11:56:17.908Z,26.30
2022-09-05T11:59:09.476Z,26.50
2022-09-05T12:02:16.960Z,26.60
2022-09-05T12:05:49.201Z,26.50
2022-09-05T12:08:40.843Z,26.60
2022-09-05T12:11:43.301Z,26.70
2022-09-05T12:14:49.292Z,26.70
2022-09-05T12:23:49.321Z,26.70
2022-09-05T12:27:41.715Z,26.60
2022-09-05T12:29:35.414Z,26.90
2022-09-05T12:33:58.227Z,27.00
2022-09-05T12:40:54.721Z,27.10
2022-09-05T12:41:39.726Z,26.90
2022-09-05T12:41:41.391Z,27.10
2022-09-05T12:44:42.615Z,27.10
2022-09-05T12:47:18.705Z,27.30
2022-09-05T12:50:02.743Z,26.90
2022-09-05T12:55:11.023Z,27.10
2022-09-05T13:01:41.986Z,27.10
2022-09-05T13:03:08.951Z,27.20
2022-09-05T13:03:53.340Z,27.30
2022-09-05T13:06:34.990Z,27.40
2022-09-05T13:09:07.083Z,27.40
2022-09-05T13:14:49.268Z,27.50
2022-09-05T13:15:06.112Z,27.50
2022-09-05T13:18:13.309Z,27.10
2022-09-05T13:20:51.520Z,27.40
2022-09-05T13:23:26.927Z,27.40
2022-09-05T13:26:17.703Z,27.20
2022-09-05T13:29:13.173Z,27.60
2022-09-05T13:38:15.621Z,27.70
2022-09-05T13:40:20.756Z,27.80
2022-09-05T13:43:08.550Z,27.90
2022-09-05T13:46:06.448Z,27.80
2022-09-05T13:51:51.112Z,27.90
2022-09-05T13:54:36.953Z,27.70
2022-09-05T13:57:31.506Z,27.70
2022-09-05T14:00:15.338Z,27.90
2022-09-05T14:03:39.377Z,27.90
2022-09-05T14:06:47.602Z,27.90
2022-09-05T14:09:49.296Z,27.90
2022-09-05T14:12:29.369Z,28.00
2022-09-05T14:15:08.917Z,27.90
2022-09-05T14:17:57.824Z,28.10
2022-09-05T14:20:49.889Z,28.10
2022-09-05T14:23:19.111Z,28.10
2022-09-05T14:26:00.654Z,28.00
2022-09-05T14:28:40.853Z,28.20
2022-09-05T14:37:34.253Z,28.30
2022-09-05T14:37:42.985Z,28.20
2022-09-05T14:37:45.452Z,28.20
2022-09-05T14:40:43.701Z,27.50
2022-09-05T14:43:40.536Z,27.70
2022-09-05T14:46:25.966Z,28.00
2022-09-05T14:49:15.564Z,28.00
2022-09-05T14:51:47.908Z,27.90
2022-09-05T15:02:39.267Z,28.10
2022-09-05T15:02:41.212Z,27.80
2022-09-05T15:05:45.584Z,28.00
2022-09-05T15:09:28.603Z,28.00
2022-09-05T15:12:23.889Z,28.00
2022-09-05T15:14:09.253Z,27.90
2022-09-05T15:16:43.407Z,27.80
2022-09-05T15:21:41.580Z,27.70
2022-09-05T15:24:25.329Z,27.40
2022-09-05T15:27:01.999Z,27.70
2022-09-05T15:29:31.801Z,27.70
2022-09-05T15:32:23.816Z,27.70
2022-09-05T15:34:56.166Z,27.70
2022-09-05T15:37:40.973Z,27.40
2022-09-05T15:40:22.975Z,28.00
2022-09-05T15:43:02.228Z,28.00
2022-09-05T15:45:35.406Z,27.70
2022-09-05T15:55:26.178Z,27.50
2022-09-05T15:58:01.961Z,27.50
2022-09-05T16:00:39.492Z,27.00
2022-09-05T16:05:19.581Z,26.90
2022-09-05T16:10:30.050Z,26.70
2022-09-05T16:10:50.979Z,26.70
2022-09-05T16:14:39.663Z,26.90
2022-09-05T16:23:23.942Z,26.30
2022-09-05T16:23:27.979Z,26.70
2022-09-05T16:23:46.483Z,26.60
2022-09-05T16:26:29.268Z,26.60
2022-09-05T16:31:58.791Z,26.80
2022-09-05T16:34:54.814Z,26.60
2022-09-05T16:37:34.248Z,26.50
2022-09-05T16:40:27.374Z,26.40
2022-09-05T16:43:08.828Z,26.30
2022-09-05T16:45:47.940Z,26.00
2022-09-05T16:48:39.326Z,26.20
2022-09-05T16:51:34.733Z,25.70
2022-09-05T16:54:16.176Z,26.00
2022-09-05T16:56:47.551Z,25.90
2022-09-05T17:01:54.764Z,25.40
2022-09-05T17:05:03.627Z,25.60
2022-09-05T17:10:21.207Z,25.40
2022-09-05T17:12:52.928Z,25.40
2022-09-05T17:15:26.241Z,25.30
2022-09-05T17:18:22.073Z,25.20
2022-09-05T17:20:49.474Z,25.10
2022-09-05T17:27:09.128Z,25.10
2022-09-05T17:31:54.866Z,24.80
2022-09-05T17:34:39.099Z,24.30
2022-09-05T17:37:37.284Z,25.00
2022-09-05T17:40:10.134Z,24.90
2022-09-05T17:45:21.907Z,24.40
2022-09-05T17:47:55.689Z,24.40
2022-09-05T17:50:28.138Z,24.20
2022-09-05T17:58:26.121Z,24.20
2022-09-05T18:03:37.625Z,24.20
2022-09-05T18:06:18.239Z,23.50
2022-09-05T18:14:01.244Z,23.30
2022-09-05T18:16:39.999Z,23.00
2022-09-05T18:22:29.991Z,23.00
2022-09-05T18:25:28.525Z,22.60
2022-09-05T18:28:19.687Z,22.70
2022-09-05T18:33:54.688Z,22.50
2022-09-05T18:36:25.515Z,22.60
2022-09-05T18:39:29.490Z,22.40
2022-09-05T18:42:25.820Z,22.20
2022-09-05T18:45:14.585Z,22.20
2022-09-05T18:48:02.817Z,22.10
2022-09-05T18:50:34.181Z,22.00
2022-09-05T18:53:10.521Z,22.00
2022-09-05T18:56:12.398Z,21.80
2022-09-05T18:59:25.065Z,21.70
2022-09-05T19:02:07.619Z,21.60
2022-09-05T19:05:02.542Z,21.50
2022-09-05T19:07:36.007Z,21.40
2022-09-05T19:10:36.046Z,21.50
2022-09-05T19:13:16.955Z,21.70
2022-09-05T19:16:43.232Z,21.30
2022-09-05T19:19:07.610Z,21.30
2022-09-05T19:21:48.089Z,21.20
2022-09-05T19:24:45.404Z,21.20
2022-09-05T19:37:14.274Z,20.80
2022-09-05T19:47:47.596Z,20.30
2022-09-05T19:47:55.699Z,20.40
2022-09-05T19:52:16.450Z,20.10
2022-09-05T19:57:21.750Z,20.00
2022-09-05T19:59:54.566Z,19.90
2022-09-05T20:04:52.992Z,19.80
2022-09-05T20:07:22.981Z,19.70
2022-09-05T20:09:51.895Z,19.60
2022-09-05T20:12:24.186Z,19.60
2022-09-05T20:17:31.476Z,19.40
2022-09-05T20:20:08.142Z,19.00
2022-09-05T20:22:49.783Z,19.40
2022-09-05T20:25:35.237Z,19.40
2022-09-05T20:28:10.929Z,19.30
2022-09-05T20:30:54.729Z,19.40
2022-09-05T20:33:48.540Z,19.40
2022-09-05T20:43:11.363Z,19.20
2022-09-05T20:43:24.178Z,19.40
2022-09-05T20:43:26.645Z,19.20
2022-09-05T20:45:42.992Z,19.40
2022-09-05T20:54:06.384Z,19.20
2022-09-05T20:54:18.671Z,19.20
2022-09-05T20:54:23.435Z,19.20
2022-09-05T21:04:04.600Z,18.80
2022-09-05T21:06:41.353Z,18.40
2022-09-05T21:09:25.781Z,18.70
2022-09-05T21:11:58.764Z,18.70
2022-09-05T21:14:28.994Z,18.80
2022-09-05T21:17:02.284Z,18.50
2022-09-05T21:19:34.931Z,18.60
2022-09-05T21:22:04.275Z,18.60
2022-09-05T21:27:24.084Z,18.70
2022-09-05T21:32:38.263Z,18.30
2022-09-05T21:35:33.951Z,18.20
2022-09-05T21:47:48.939Z,18.00
2022-09-05T21:50:58.337Z,17.90
2022-09-05T21:56:38.710Z,17.70
2022-09-05T21:57:00.378Z,17.80
2022-09-05T21:59:46.682Z,17.70
2022-09-05T22:07:21.650Z,17.50
2022-09-05T22:17:50.329Z,17.50
2022-09-05T22:20:20.767Z,17.40
2022-09-05T22:25:28.627Z,17.40
2022-09-05T22:28:10.556Z,17.30
2022-09-05T22:35:36.005Z,17.10
2022-09-05T22:38:12.497Z,17.10
2022-09-05T22:40:41.697Z,17.10
2022-09-05T22:43:10.471Z,17.00
2022-09-05T22:45:39.315Z,17.00
2022-09-05T22:48:13.117Z,17.00
2022-09-05T22:50:41.421Z,16.90
2022-09-05T22:53:09.856Z,16.90
2022-09-05T22:55:39.016Z,16.90
2022-09-05T22:58:07.420Z,16.80
2022-09-05T23:03:03.873Z,16.80
2022-09-05T23:08:00.413Z,16.70
2022-09-05T23:10:28.889Z,16.70
2022-09-05T23:17:58.455Z,16.40
2022-09-05T23:20:27.463Z,16.50
2022-09-05T23:30:17.102Z,16.20
2022-09-05T23:32:51.894Z,16.50
2022-09-05T23:35:19.517Z,16.50
2022-09-05T23:37:47.537Z,16.50
2022-09-05T23:40:21.883Z,16.30
2022-09-05T23:42:52.242Z,16.50
2022-09-05T23:52:42.971Z,16.50
2022-09-05T23:55:11.264Z,16.20
